Main page
Satellite images 15-day forecastsClimateMarine weather Cyclones Lightning AirportsFAQ Newsletter About
Weather : Europe Africa North America South America Asia Australia-Oceania Others
Languages Contact

Warsaw, Poland

Fryderyk Chopin

latitude: 52-10N, longitude: 020-58E, elevation: 106 m


METAR: EPWA 181900Z 21005KT CAVOK 06/05 Q1009 NOSIG
TAF: EPWA 181730Z 1818/1918 22012KT 9999 BKN030 BECMG 1820/1822 BKN013 TEMPO 1822/1918 22015G27KT 4000 RA BKN006 BKN013

Time: 20:27 (19:27 UTC)

Current weather observation

The report was made 27 minutes ago, at 19:00 UTC
Wind 5 kt from the South/Southwest
Temperature 6°C
Humidity 93%
Pressure 1009 hPa
Visibility 10 km or more
no clouds below 1500 m and no cumulonimbus

Change units

Forecast

The report was made 1 hour and 57 minutes ago, at 17:30 UTC
Forecast valid from 18 at 18 UTC to 19 at 18 UTC
Wind 12 kt from the Southwest
Visibility 10 km or more
Broken clouds at a height of 3000 ft
Becoming
from 18 at 20 UTC to 18 at 22 UTC
Broken clouds at a height of 1300 ft
Temporary
from 18 at 22 UTC to 19 at 18 UTC
Wind 15 kt from the Southwest with gusts up to 27 kt
Visibility: 4000 m
Broken clouds at a height of 600 ft
Broken clouds at a height of 1300 ft
rain
The information on this site is subject to a disclaimer
Weather : Europe Africa North America South America Asia Australia-Oceania Others
Satellite images 15-day forecastsClimateMarine weather Cyclones Lightning AirportsFAQ Languages Contact Newsletter About